createdAt,value
2018-09-15T00:00:49.931Z,42.90
2018-09-15T00:03:18.069Z,42.40
2018-09-15T00:05:46.314Z,42.50
2018-09-15T00:08:15.571Z,42.40
2018-09-15T00:10:43.788Z,42.40
2018-09-15T00:13:12.186Z,42.40
2018-09-15T00:15:40.383Z,42.40
2018-09-15T00:18:10.669Z,42.30
2018-09-15T00:20:38.921Z,43.00
2018-09-15T00:23:07.546Z,42.40
2018-09-15T00:25:35.704Z,42.40
2018-09-15T00:28:03.845Z,42.30
2018-09-15T00:30:32.325Z,42.30
2018-09-15T00:33:00.599Z,42.30
2018-09-15T00:35:28.733Z,42.30
2018-09-15T00:37:56.850Z,42.20
2018-09-15T00:40:24.977Z,42.20
2018-09-15T00:42:53.097Z,42.30
2018-09-15T00:45:21.318Z,42.30
2018-09-15T00:47:49.496Z,43.00
2018-09-15T00:50:17.621Z,42.30
2018-09-15T00:52:45.757Z,42.30
2018-09-15T00:55:13.863Z,42.30
2018-09-15T00:57:42.036Z,42.10
2018-09-15T01:00:10.160Z,42.10
2018-09-15T01:02:38.284Z,42.20
2018-09-15T01:05:06.410Z,42.20
2018-09-15T01:07:34.535Z,42.20
2018-09-15T01:10:02.760Z,42.20
2018-09-15T01:12:30.944Z,42.20
2018-09-15T01:14:59.056Z,42.20
2018-09-15T01:17:27.156Z,42.00
2018-09-15T01:19:55.336Z,42.00
2018-09-15T01:22:23.425Z,42.20
2018-09-15T01:24:51.543Z,42.20
2018-09-15T01:27:19.700Z,42.30
2018-09-15T01:29:47.835Z,42.30
2018-09-15T01:32:15.951Z,42.20
2018-09-15T01:34:44.051Z,42.10
2018-09-15T01:37:12.187Z,42.10
2018-09-15T01:39:40.301Z,42.10
2018-09-15T01:42:08.415Z,42.10
2018-09-15T01:44:36.534Z,42.10
2018-09-15T01:47:04.668Z,42.00
2018-09-15T01:49:32.778Z,42.00
2018-09-15T01:52:00.880Z,42.10
2018-09-15T01:54:28.971Z,42.20
2018-09-15T01:56:57.068Z,42.20
2018-09-15T01:59:25.177Z,42.20
2018-09-15T02:01:53.296Z,42.10
2018-09-15T02:04:21.403Z,42.00
2018-09-15T02:06:49.493Z,42.00
2018-09-15T02:09:17.574Z,42.10
2018-09-15T02:11:45.692Z,42.20
2018-09-15T02:14:13.785Z,42.20
2018-09-15T02:16:41.883Z,42.20
2018-09-15T02:19:09.972Z,42.20
2018-09-15T02:21:38.111Z,42.00
2018-09-15T02:24:06.374Z,42.10
2018-09-15T02:26:34.523Z,42.00
2018-09-15T02:29:02.718Z,42.10
2018-09-15T02:31:30.783Z,42.10
2018-09-15T02:33:58.881Z,42.20
2018-09-15T02:36:27.017Z,42.20
2018-09-15T02:38:55.108Z,42.20
2018-09-15T02:41:23.208Z,42.10
2018-09-15T02:43:51.334Z,42.00
2018-09-15T02:46:19.456Z,42.00
2018-09-15T02:48:47.759Z,42.10
2018-09-15T02:51:15.884Z,42.10
2018-09-15T02:53:43.988Z,42.10
2018-09-15T02:56:12.097Z,42.10
2018-09-15T02:58:40.375Z,42.20
2018-09-15T03:01:08.483Z,42.30
2018-09-15T03:03:36.646Z,42.20
2018-09-15T03:06:04.749Z,42.20
2018-09-15T03:08:32.855Z,42.20
2018-09-15T03:11:00.946Z,42.30
2018-09-15T03:13:29.051Z,42.30
2018-09-15T03:15:57.131Z,42.30
2018-09-15T03:18:25.256Z,42.30
2018-09-15T03:20:53.476Z,42.30
2018-09-15T03:23:21.773Z,42.40
2018-09-15T03:25:49.899Z,42.30
2018-09-15T03:28:17.996Z,42.30
2018-09-15T03:30:46.159Z,42.30
2018-09-15T03:33:14.474Z,42.40
2018-09-15T03:35:42.577Z,42.40
2018-09-15T03:38:10.691Z,42.40
2018-09-15T03:40:38.803Z,42.20
2018-09-15T03:43:06.901Z,42.20
2018-09-15T03:45:34.998Z,42.30
2018-09-15T03:48:03.119Z,42.20
2018-09-15T03:50:31.227Z,42.30
2018-09-15T03:52:59.372Z,42.20
2018-09-15T03:55:27.468Z,42.10
2018-09-15T03:57:55.584Z,42.20
2018-09-15T04:00:23.661Z,42.20
2018-09-15T04:02:51.808Z,42.30
2018-09-15T04:05:19.928Z,42.20
2018-09-15T04:07:48.032Z,42.20
2018-09-15T04:10:16.158Z,42.20
2018-09-15T04:12:45.029Z,42.10
2018-09-15T04:15:13.123Z,42.20
2018-09-15T04:17:41.204Z,42.20
2018-09-15T04:20:09.284Z,42.10
2018-09-15T04:22:37.391Z,42.20
2018-09-15T04:25:05.482Z,42.10
2018-09-15T04:27:33.581Z,42.20
2018-09-15T04:30:01.728Z,42.20
2018-09-15T04:32:29.835Z,42.10
2018-09-15T04:34:57.956Z,42.10
2018-09-15T04:37:26.074Z,42.30
2018-09-15T04:39:54.184Z,42.30
2018-09-15T04:42:22.323Z,42.30
2018-09-15T04:44:50.417Z,42.40
2018-09-15T04:47:18.512Z,42.40
2018-09-15T04:49:46.603Z,42.40
2018-09-15T04:52:14.707Z,42.30
2018-09-15T04:54:42.828Z,42.30
2018-09-15T04:57:10.952Z,42.40
2018-09-15T04:59:39.079Z,42.50
2018-09-15T05:02:07.184Z,42.50
2018-09-15T05:04:35.330Z,42.50
2018-09-15T05:07:03.439Z,42.50
2018-09-15T05:09:31.579Z,42.50
2018-09-15T05:11:59.692Z,42.70
2018-09-15T05:14:27.803Z,42.80
2018-09-15T05:16:55.916Z,42.70
2018-09-15T05:19:24.017Z,42.70
2018-09-15T05:21:52.159Z,42.60
2018-09-15T05:24:20.247Z,42.60
2018-09-15T05:26:48.391Z,42.60
2018-09-15T05:29:16.884Z,42.70
2018-09-15T05:31:45.017Z,42.60
2018-09-15T05:34:13.158Z,42.70
2018-09-15T05:36:41.276Z,42.80
2018-09-15T05:39:11.023Z,42.70
2018-09-15T05:41:39.140Z,42.60
2018-09-15T05:44:07.314Z,42.80
2018-09-15T05:46:35.512Z,42.80
2018-09-15T05:49:03.641Z,42.80
2018-09-15T05:51:31.797Z,42.80
2018-09-15T05:53:59.930Z,42.80
2018-09-15T05:56:28.133Z,43.00
2018-09-15T05:58:56.228Z,42.80
2018-09-15T06:01:24.744Z,42.90
2018-09-15T06:03:52.940Z,42.90
2018-09-15T06:06:21.067Z,42.90
2018-09-15T06:08:49.187Z,43.00
2018-09-15T06:11:17.303Z,42.90
2018-09-15T06:13:45.503Z,42.90
2018-09-15T06:16:13.563Z,42.90
2018-09-15T06:18:41.943Z,43.10
2018-09-15T06:21:10.289Z,43.10
2018-09-15T06:23:38.388Z,42.90
2018-09-15T06:26:06.575Z,42.80
2018-09-15T06:28:34.983Z,42.80
2018-09-15T06:31:03.194Z,42.80
2018-09-15T06:33:31.238Z,42.90
2018-09-15T06:35:59.357Z,42.80
2018-09-15T06:38:27.497Z,43.40
2018-09-15T06:40:55.603Z,42.60
2018-09-15T06:43:23.706Z,42.90
2018-09-15T06:45:51.979Z,42.70
2018-09-15T06:48:20.304Z,42.80
2018-09-15T06:50:48.467Z,42.90
2018-09-15T06:53:16.582Z,43.00
2018-09-15T06:55:44.726Z,43.10
2018-09-15T06:58:12.836Z,43.10
2018-09-15T07:00:41.023Z,43.00
2018-09-15T07:03:09.192Z,43.30
2018-09-15T07:05:37.318Z,43.30
2018-09-15T07:08:05.423Z,43.40
2018-09-15T07:10:33.540Z,43.40
2018-09-15T07:13:01.664Z,43.40
2018-09-15T07:15:29.840Z,43.30
2018-09-15T07:17:57.973Z,43.20
2018-09-15T07:20:26.117Z,42.90
2018-09-15T07:22:54.203Z,42.80
2018-09-15T07:25:22.530Z,42.80
2018-09-15T07:27:50.632Z,43.00
2018-09-15T07:30:18.812Z,43.00
2018-09-15T07:32:46.911Z,43.10
2018-09-15T07:35:15.055Z,43.00
2018-09-15T07:37:43.269Z,43.00
2018-09-15T07:40:11.354Z,43.10
2018-09-15T07:42:39.496Z,43.20
2018-09-15T07:45:07.714Z,43.00
2018-09-15T07:47:35.875Z,43.20
2018-09-15T07:50:04.043Z,43.10
2018-09-15T07:52:32.151Z,43.20
2018-09-15T07:55:00.289Z,43.30
2018-09-15T07:57:28.419Z,43.50
2018-09-15T07:59:56.516Z,43.30
2018-09-15T08:02:24.601Z,43.30
2018-09-15T08:04:52.719Z,43.50
2018-09-15T08:07:20.869Z,43.50
2018-09-15T08:09:49.072Z,43.60
2018-09-15T08:12:17.995Z,43.60
2018-09-15T08:14:46.313Z,43.70
2018-09-15T08:17:14.408Z,43.60
2018-09-15T08:19:42.697Z,43.60
2018-09-15T08:22:10.816Z,43.40
2018-09-15T08:24:38.926Z,43.30
2018-09-15T08:27:07.172Z,43.30
2018-09-15T08:29:35.323Z,43.60
2018-09-15T08:32:03.495Z,43.80
2018-09-15T08:34:31.684Z,43.90
2018-09-15T08:36:59.792Z,44.00
2018-09-15T08:39:27.880Z,44.10
2018-09-15T08:41:56.011Z,44.20
2018-09-15T08:44:24.144Z,44.50
2018-09-15T08:46:52.276Z,44.50
2018-09-15T08:49:20.384Z,44.30
2018-09-15T08:51:48.498Z,44.30
2018-09-15T08:54:16.791Z,44.10
2018-09-15T08:56:44.905Z,44.10
2018-09-15T08:59:13.007Z,44.10
2018-09-15T09:01:41.125Z,44.20
2018-09-15T09:04:09.253Z,44.30
2018-09-15T09:06:37.370Z,44.30
2018-09-15T09:09:07.920Z,44.40
2018-09-15T09:11:36.151Z,43.80
2018-09-15T09:14:04.236Z,44.30
2018-09-15T09:16:32.384Z,44.20
2018-09-15T09:19:00.529Z,44.40
2018-09-15T09:21:28.672Z,44.30
2018-09-15T09:23:56.852Z,44.80
2018-09-15T09:26:25.389Z,44.00
2018-09-15T09:28:53.411Z,43.80
2018-09-15T09:31:21.496Z,43.40
2018-09-15T09:33:49.735Z,43.00
2018-09-15T09:36:18.021Z,42.50
2018-09-15T09:38:46.120Z,42.50
2018-09-15T09:41:14.255Z,42.00
2018-09-15T09:43:42.457Z,41.80
2018-09-15T09:46:10.603Z,41.60
2018-09-15T09:48:38.746Z,41.40
2018-09-15T09:51:06.946Z,41.20
2018-09-15T09:53:35.098Z,40.70
2018-09-15T09:56:03.217Z,40.30
2018-09-15T09:58:31.349Z,40.30
2018-09-15T10:01:03.783Z,40.20
2018-09-15T10:03:32.253Z,40.40
2018-09-15T10:06:00.656Z,40.60
2018-09-15T10:08:28.777Z,40.70
2018-09-15T10:10:56.925Z,41.00
2018-09-15T10:13:25.027Z,40.70
2018-09-15T10:15:53.425Z,40.60
2018-09-15T10:18:21.776Z,40.50
2018-09-15T10:20:49.876Z,39.80
2018-09-15T10:23:18.753Z,40.40
2018-09-15T10:25:46.988Z,40.80
2018-09-15T10:28:15.100Z,41.40
2018-09-15T10:30:43.250Z,41.80
2018-09-15T10:33:11.392Z,41.80
2018-09-15T10:35:39.519Z,41.70
2018-09-15T10:38:08.865Z,41.60
2018-09-15T10:40:37.390Z,41.60
2018-09-15T10:43:05.554Z,40.70
2018-09-15T10:45:33.652Z,40.80
2018-09-15T10:48:01.809Z,41.10
2018-09-15T10:50:30.144Z,40.80
2018-09-15T10:52:58.239Z,40.20
2018-09-15T10:55:26.361Z,40.30
2018-09-15T10:57:54.488Z,40.60
2018-09-15T11:00:22.657Z,40.50
2018-09-15T11:02:52.492Z,42.20
2018-09-15T11:05:20.684Z,44.40
2018-09-15T11:07:48.860Z,45.50
2018-09-15T11:10:17.071Z,45.00
2018-09-15T11:12:45.223Z,45.60
2018-09-15T11:15:13.347Z,46.10
2018-09-15T11:17:41.468Z,44.80
2018-09-15T11:20:09.621Z,43.80
2018-09-15T11:22:37.815Z,43.10
2018-09-15T11:25:05.855Z,43.20
2018-09-15T11:27:33.955Z,42.40
2018-09-15T11:30:02.120Z,40.60
2018-09-15T11:32:30.258Z,41.10
2018-09-15T11:34:58.350Z,43.40
2018-09-15T11:37:26.448Z,44.10
2018-09-15T11:39:54.612Z,44.40
2018-09-15T11:42:22.710Z,44.30
2018-09-15T11:44:51.569Z,45.10
2018-09-15T11:47:19.830Z,47.30
2018-09-15T11:49:47.950Z,47.00
2018-09-15T11:52:16.056Z,47.20
2018-09-15T11:54:44.180Z,47.80
2018-09-15T11:57:12.303Z,48.40
2018-09-15T11:59:40.427Z,48.50
2018-09-15T12:02:08.861Z,47.00
2018-09-15T12:04:36.856Z,47.80
2018-09-15T12:07:04.951Z,49.60
2018-09-15T12:09:33.010Z,49.40
2018-09-15T12:12:01.148Z,49.30
2018-09-15T12:14:29.306Z,48.60
2018-09-15T12:16:57.415Z,47.40
2018-09-15T12:19:25.722Z,46.50
2018-09-15T12:21:53.990Z,47.00
2018-09-15T12:24:22.328Z,47.80
2018-09-15T12:26:50.523Z,47.80
2018-09-15T12:29:18.654Z,41.80
2018-09-15T12:31:46.771Z,38.10
2018-09-15T12:34:14.856Z,39.80
2018-09-15T12:36:42.972Z,35.60
2018-09-15T12:39:11.099Z,33.70
2018-09-15T12:41:39.178Z,30.50
2018-09-15T12:44:07.312Z,29.80
2018-09-15T12:46:35.449Z,29.30
2018-09-15T12:49:04.615Z,32.80
2018-09-15T12:51:32.727Z,34.20
2018-09-15T12:54:00.866Z,38.20
2018-09-15T12:56:28.940Z,39.90
2018-09-15T12:58:57.067Z,40.20
2018-09-15T13:01:25.142Z,42.20
2018-09-15T13:03:53.251Z,43.50
2018-09-15T13:06:21.330Z,44.30
2018-09-15T13:08:49.597Z,43.00
2018-09-15T13:11:17.672Z,43.10
2018-09-15T13:13:45.764Z,42.70
2018-09-15T13:16:13.883Z,43.40
2018-09-15T13:18:41.996Z,42.90
2018-09-15T13:21:10.093Z,43.40
2018-09-15T13:23:38.271Z,44.20
2018-09-15T13:26:06.407Z,44.90
2018-09-15T13:28:34.563Z,43.80
2018-09-15T13:31:02.685Z,42.80
2018-09-15T13:33:30.799Z,41.90
2018-09-15T13:35:58.920Z,41.40
2018-09-15T13:38:27.024Z,40.90
2018-09-15T13:40:55.283Z,40.20
2018-09-15T13:43:23.423Z,38.20
2018-09-15T13:45:51.579Z,35.60
2018-09-15T13:48:19.816Z,35.70
2018-09-15T13:50:47.928Z,36.80
2018-09-15T13:53:16.089Z,37.40
2018-09-15T13:55:44.236Z,38.00
2018-09-15T13:58:12.348Z,37.60
2018-09-15T14:00:40.473Z,37.90
2018-09-15T14:03:08.607Z,38.30
2018-09-15T14:05:36.796Z,38.70
2018-09-15T14:08:04.926Z,38.90
2018-09-15T14:10:33.080Z,39.20
2018-09-15T14:13:01.188Z,39.40
2018-09-15T14:15:29.984Z,39.50
2018-09-15T14:17:58.513Z,39.60
2018-09-15T14:20:27.046Z,39.70
2018-09-15T14:22:55.180Z,39.80
2018-09-15T14:25:23.281Z,40.00
2018-09-15T14:27:51.394Z,39.90
2018-09-15T14:30:20.723Z,39.70
2018-09-15T14:32:54.919Z,38.60
2018-09-15T14:35:24.475Z,36.20
2018-09-15T14:40:37.614Z,33.40
2018-09-15T14:43:05.760Z,32.90
2018-09-15T14:45:34.707Z,32.70
2018-09-15T14:48:03.099Z,32.50
2018-09-15T14:50:32.938Z,32.70
2018-09-15T14:53:01.287Z,32.80
2018-09-15T14:55:33.195Z,32.80
2018-09-15T14:58:04.614Z,32.70
2018-09-15T15:00:35.031Z,32.60
2018-09-15T15:03:06.160Z,32.60
2018-09-15T15:05:35.884Z,32.70
2018-09-15T15:08:04.284Z,33.10
2018-09-15T15:10:32.455Z,33.80
2018-09-15T15:13:00.581Z,34.60
2018-09-15T15:15:28.696Z,35.20
2018-09-15T15:17:56.804Z,36.10
2018-09-15T15:20:25.121Z,36.70
2018-09-15T15:22:53.206Z,37.10
2018-09-15T15:25:21.319Z,37.60
2018-09-15T15:27:49.420Z,37.90
2018-09-15T15:30:17.540Z,38.20
2018-09-15T15:32:45.698Z,38.40
2018-09-15T15:35:14.440Z,38.70
2018-09-15T15:37:42.530Z,39.00
2018-09-15T15:40:10.596Z,39.20
2018-09-15T15:42:38.715Z,39.60
2018-09-15T15:45:06.926Z,39.60
2018-09-15T15:47:35.056Z,40.30
2018-09-15T15:50:03.189Z,39.90
2018-09-15T15:52:31.333Z,40.10
2018-09-15T15:54:59.458Z,40.20
2018-09-15T15:57:27.555Z,40.20
2018-09-15T15:59:55.715Z,40.60
2018-09-15T16:02:23.855Z,40.80
2018-09-15T16:04:51.967Z,40.80
2018-09-15T16:07:20.135Z,40.90
2018-09-15T16:09:48.300Z,40.90
2018-09-15T16:12:16.395Z,41.00
2018-09-15T16:14:44.529Z,40.90
2018-09-15T16:17:12.707Z,41.10
2018-09-15T16:19:40.769Z,41.00
2018-09-15T16:22:08.878Z,40.80
2018-09-15T16:24:37.018Z,40.80
2018-09-15T16:27:05.340Z,40.80
2018-09-15T16:29:33.462Z,40.70
2018-09-15T16:32:01.575Z,40.70
2018-09-15T16:34:29.673Z,40.70
2018-09-15T16:36:57.779Z,40.60
2018-09-15T16:39:25.879Z,40.80
2018-09-15T16:41:54.008Z,40.70
2018-09-15T16:44:22.127Z,40.90
2018-09-15T16:46:50.233Z,41.10
2018-09-15T16:49:18.386Z,41.20
2018-09-15T16:51:46.493Z,41.40
2018-09-15T16:54:14.607Z,41.40
2018-09-15T16:56:42.724Z,41.60
2018-09-15T16:59:10.805Z,41.70
2018-09-15T17:01:38.920Z,41.90
2018-09-15T17:04:07.031Z,42.00
2018-09-15T17:06:35.183Z,42.10
2018-09-15T17:09:09.191Z,42.20
2018-09-15T17:11:37.361Z,42.30
2018-09-15T17:14:05.471Z,42.60
2018-09-15T17:16:33.717Z,42.60
2018-09-15T17:19:01.793Z,42.80
2018-09-15T17:21:30.149Z,42.80
2018-09-15T17:23:58.356Z,43.00
2018-09-15T17:26:26.496Z,43.00
2018-09-15T17:28:54.675Z,43.20
2018-09-15T17:31:22.910Z,43.30
2018-09-15T17:33:51.037Z,43.40
2018-09-15T17:36:19.197Z,43.50
2018-09-15T17:38:47.509Z,43.70
2018-09-15T17:41:15.628Z,43.60
2018-09-15T17:43:43.759Z,43.90
2018-09-15T17:48:45.376Z,44.10
2018-09-15T17:51:13.483Z,44.10
2018-09-15T17:53:41.655Z,44.30
2018-09-15T17:56:09.809Z,44.40
2018-09-15T17:58:38.311Z,44.50
2018-09-15T18:01:06.492Z,44.60
2018-09-15T18:03:34.673Z,44.60
2018-09-15T18:06:02.740Z,44.80
2018-09-15T18:08:30.910Z,44.80
2018-09-15T18:10:59.036Z,44.90
2018-09-15T18:13:27.250Z,45.10
2018-09-15T18:15:55.585Z,45.20
2018-09-15T18:18:23.711Z,45.30
2018-09-15T18:20:51.806Z,45.40
2018-09-15T18:23:19.948Z,45.50
2018-09-15T18:25:48.051Z,45.50
2018-09-15T18:28:16.172Z,45.60
2018-09-15T18:30:44.271Z,45.70
2018-09-15T18:33:12.367Z,45.80
2018-09-15T18:35:40.620Z,45.80
2018-09-15T18:38:08.703Z,46.00
2018-09-15T18:40:36.820Z,46.00
2018-09-15T18:43:04.945Z,46.10
2018-09-15T18:45:33.035Z,46.20
2018-09-15T18:48:01.158Z,46.20
2018-09-15T18:50:29.260Z,46.10
2018-09-15T18:52:57.380Z,46.20
2018-09-15T18:55:25.560Z,46.20
2018-09-15T18:57:53.757Z,46.30
2018-09-15T19:00:21.976Z,46.30
2018-09-15T19:02:50.155Z,46.40
2018-09-15T19:05:18.280Z,46.40
2018-09-15T19:07:46.400Z,46.40
2018-09-15T19:10:14.535Z,46.40
2018-09-15T19:12:42.625Z,46.40
2018-09-15T19:15:10.742Z,46.50
2018-09-15T19:17:38.892Z,46.50
2018-09-15T19:20:07.043Z,46.60
2018-09-15T19:22:35.267Z,46.60
2018-09-15T19:25:03.603Z,46.70
2018-09-15T19:27:31.754Z,46.80
2018-09-15T19:30:00.074Z,46.80
2018-09-15T19:32:28.221Z,46.80
2018-09-15T19:34:56.398Z,46.80
2018-09-15T19:37:24.519Z,46.90
2018-09-15T19:39:52.629Z,46.80
2018-09-15T19:42:20.730Z,46.90
2018-09-15T19:44:48.960Z,47.00
2018-09-15T19:47:17.054Z,47.00
2018-09-15T19:49:45.147Z,46.80
2018-09-15T19:52:13.324Z,46.80
2018-09-15T19:54:41.417Z,46.70
2018-09-15T19:57:09.552Z,46.60
2018-09-15T19:59:37.604Z,46.60
2018-09-15T20:02:05.724Z,46.50
2018-09-15T20:04:33.844Z,46.40
2018-09-15T20:07:01.940Z,46.40
2018-09-15T20:09:30.056Z,46.40
2018-09-15T20:11:58.203Z,46.40
2018-09-15T20:14:26.288Z,46.30
2018-09-15T20:16:53.452Z,46.30
2018-09-15T20:19:20.655Z,46.30
2018-09-15T20:21:47.871Z,46.30
2018-09-15T20:24:15.964Z,46.90
2018-09-15T20:26:44.089Z,46.20
2018-09-15T20:29:12.207Z,46.10
2018-09-15T20:31:40.292Z,46.20
2018-09-15T20:34:08.382Z,46.10
2018-09-15T20:36:36.476Z,46.10
2018-09-15T20:39:08.029Z,46.00
2018-09-15T20:41:36.181Z,46.00
2018-09-15T20:44:04.341Z,46.00
2018-09-15T20:46:32.501Z,46.00
2018-09-15T20:49:00.655Z,46.00
2018-09-15T20:51:29.179Z,46.00
2018-09-15T20:53:57.962Z,45.90
2018-09-15T20:56:26.055Z,45.90
2018-09-15T20:58:54.171Z,45.90
2018-09-15T21:01:22.288Z,46.40
2018-09-15T21:03:50.824Z,45.80
2018-09-15T21:06:18.977Z,45.80
2018-09-15T21:08:47.572Z,45.80
2018-09-15T21:11:15.797Z,45.70
2018-09-15T21:13:43.959Z,45.70
2018-09-15T21:16:12.202Z,45.70
2018-09-15T21:18:40.305Z,46.20
2018-09-15T21:21:08.421Z,45.50
2018-09-15T21:23:36.509Z,45.50
2018-09-15T21:26:04.624Z,45.50
2018-09-15T21:28:32.747Z,45.50
2018-09-15T21:31:00.925Z,45.50
2018-09-15T21:33:29.096Z,45.60
2018-09-15T21:35:57.244Z,45.50
2018-09-15T21:38:25.367Z,45.50
2018-09-15T21:40:53.502Z,45.40
2018-09-15T21:43:21.644Z,45.30
2018-09-15T21:45:49.772Z,45.30
2018-09-15T21:48:17.895Z,45.30
2018-09-15T21:50:46.007Z,45.40
2018-09-15T21:53:14.089Z,45.40
2018-09-15T21:55:42.208Z,45.30
2018-09-15T21:58:11.636Z,45.30
2018-09-15T22:00:40.455Z,45.30
2018-09-15T22:03:08.569Z,45.20
2018-09-15T22:05:36.692Z,45.30
2018-09-15T22:08:04.768Z,45.30
2018-09-15T22:10:32.907Z,45.20
2018-09-15T22:13:01.022Z,45.20
2018-09-15T22:15:29.109Z,45.30
2018-09-15T22:17:58.365Z,45.30
2018-09-15T22:20:26.840Z,45.10
2018-09-15T22:22:55.115Z,45.20
2018-09-15T22:25:23.341Z,45.20
2018-09-15T22:27:51.569Z,45.20
2018-09-15T22:30:19.674Z,45.10
2018-09-15T22:32:47.864Z,45.10
2018-09-15T22:35:16.020Z,45.10
2018-09-15T22:37:44.201Z,45.10
2018-09-15T22:40:12.373Z,45.00
2018-09-15T22:42:40.603Z,45.00
2018-09-15T22:45:08.838Z,45.10
2018-09-15T22:47:37.001Z,45.00
2018-09-15T22:50:05.501Z,45.00
2018-09-15T22:52:33.830Z,45.00
2018-09-15T22:55:02.191Z,45.10
2018-09-15T22:57:30.557Z,45.00
2018-09-15T22:59:58.868Z,45.10
2018-09-15T23:02:27.072Z,45.00
2018-09-15T23:04:55.263Z,45.00
2018-09-15T23:07:23.419Z,45.00
2018-09-15T23:09:51.599Z,45.00
2018-09-15T23:12:20.032Z,45.00
2018-09-15T23:14:48.456Z,44.90
2018-09-15T23:17:16.805Z,45.00
2018-09-15T23:19:45.194Z,45.00
2018-09-15T23:22:13.687Z,45.00
2018-09-15T23:24:42.108Z,45.00
2018-09-15T23:27:10.608Z,44.90
2018-09-15T23:29:39.016Z,50.70
2018-09-15T23:32:07.564Z,50.50
2018-09-15T23:34:35.889Z,50.40
2018-09-15T23:37:04.393Z,50.00
2018-09-15T23:39:32.872Z,49.80
2018-09-15T23:42:01.309Z,49.40
2018-09-15T23:44:29.690Z,49.20
2018-09-15T23:46:58.307Z,48.90
2018-09-15T23:49:26.577Z,48.70
2018-09-15T23:51:55.147Z,48.60
2018-09-15T23:54:23.554Z,48.50
2018-09-15T23:56:51.960Z,48.40
2018-09-15T23:59:20.067Z,48.40
